Time;durP1;ratioP1;P1;durP2;ratioP2;P2;SDS_P1;SDS_P2;PMS_P1;PMS_P2;Temp;Humidity;BMP_temperature;BMP_pressure;BME280_temperature;BME280_humidity;BME280_pressure;Samples;Min_cycle;Max_cycle;Signal;HPM_P1;HPM_P2
2022/03/08 00:02:06;;;;;;;23.63;11.77;;;;;;;1.58;93.44;96558.31;5096490;28;20470;-38
2022/03/08 00:04:35;;;;;;;26.93;13.27;;;;;;;1.57;93.49;96561.91;5096763;28;20443;-38
2022/03/08 00:07:03;;;;;;;24.53;12.40;;;;;;;1.58;93.49;96553.88;5096645;28;20491;-38
2022/03/08 00:09:30;;;;;;;25.60;12.83;;;;;;;1.48;93.49;96535.06;5096662;28;20447;-38
2022/03/08 00:11:57;;;;;;;24.50;12.70;;;;;;;1.56;93.11;96552.47;5096889;28;20449;-38
2022/03/08 00:14:25;;;;;;;20.37;11.90;;;;;;;1.55;93.22;96559.50;5096819;28;20450;-38
2022/03/08 00:16:52;;;;;;;19.40;10.30;;;;;;;1.54;92.82;96554.44;5096522;28;20443;-38
2022/03/08 00:19:19;;;;;;;14.07;7.03;;;;;;;1.48;92.34;96556.00;5096804;28;20922;-37
2022/03/08 00:21:48;;;;;;;10.17;5.20;;;;;;;1.43;92.67;96553.94;5096720;28;20480;-38
2022/03/08 00:24:16;;;;;;;12.37;5.73;;;;;;;1.43;92.61;96555.75;5096680;28;20447;-38
2022/03/08 00:26:43;;;;;;;7.93;5.20;;;;;;;1.42;92.94;96548.91;5096236;28;20479;-38
2022/03/08 00:29:11;;;;;;;12.23;6.40;;;;;;;1.43;93.16;96550.50;5096225;28;20454;-38
2022/03/08 00:31:38;;;;;;;14.47;7.13;;;;;;;1.47;93.10;96538.69;5096509;28;20443;-37
2022/03/08 00:34:06;;;;;;;11.53;6.50;;;;;;;1.47;93.19;96543.91;5096505;28;20461;-37
2022/03/08 00:36:34;;;;;;;8.23;5.40;;;;;;;1.46;93.50;96544.09;5096158;28;20443;-39
2022/03/08 00:39:03;;;;;;;13.13;6.63;;;;;;;1.43;93.67;96540.03;5096121;28;20435;-38
2022/03/08 00:41:30;;;;;;;20.60;10.07;;;;;;;1.44;93.98;96528.56;5096062;28;20440;-37
2022/03/08 00:43:57;;;;;;;22.47;9.37;;;;;;;1.42;93.61;96538.44;5096071;28;20441;-39
2022/03/08 00:46:25;;;;;;;15.23;8.63;;;;;;;1.39;93.81;96536.19;5096169;28;20500;-37
2022/03/08 00:48:52;;;;;;;15.87;8.70;;;;;;;1.41;94.09;96544.66;5095817;28;20808;-38
2022/03/08 00:51:19;;;;;;;16.93;9.00;;;;;;;1.41;94.06;96534.19;5095830;28;20435;-38
2022/03/08 00:53:48;;;;;;;19.67;10.00;;;;;;;1.41;94.08;96528.94;5096138;28;20438;-37
2022/03/08 00:56:17;;;;;;;27.37;12.70;;;;;;;1.40;94.20;96532.56;5095756;28;20526;-37
2022/03/08 00:58:44;;;;;;;15.13;8.23;;;;;;;1.40;93.95;96527.34;5095663;28;20439;-37
2022/03/08 01:01:11;;;;;;;16.77;8.77;;;;;;;1.39;93.61;96534.34;5095742;28;20477;-37
2022/03/08 01:03:39;;;;;;;13.47;6.20;;;;;;;1.32;93.00;96524.84;5095902;28;20485;-38
2022/03/08 01:06:06;;;;;;;8.17;5.37;;;;;;;1.31;93.73;96528.44;5095931;28;20451;-37
2022/03/08 01:08:33;;;;;;;11.37;7.73;;;;;;;1.32;94.17;96533.47;5095519;28;21008;-38
2022/03/08 01:11:00;;;;;;;16.80;8.77;;;;;;;1.38;94.17;96530.13;5095472;28;20443;-37
2022/03/08 01:13:29;;;;;;;18.83;8.83;;;;;;;1.40;93.83;96540.44;5095729;28;20500;-38
2022/03/08 01:15:56;;;;;;;13.63;7.40;;;;;;;1.39;94.17;96531.75;5095645;28;20443;-37
2022/03/08 01:18:23;;;;;;;18.47;9.53;;;;;;;1.38;94.05;96530.13;5096191;28;20455;-37
2022/03/08 01:20:51;;;;;;;13.67;8.40;;;;;;;1.36;94.11;96539.16;5095545;28;20443;-38
2022/03/08 01:23:18;;;;;;;15.57;8.33;;;;;;;1.35;93.51;96540.16;5095209;28;20443;-37
2022/03/08 01:25:45;;;;;;;20.03;9.10;;;;;;;1.32;93.27;96541.34;5095174;28;20443;-37
2022/03/08 01:28:12;;;;;;;15.50;9.30;;;;;;;1.30;94.03;96529.44;5095355;28;20821;-37
2022/03/08 01:30:41;;;;;;;20.90;10.20;;;;;;;1.27;93.95;96535.03;5095358;28;20451;-38
2022/03/08 01:33:08;;;;;;;13.47;8.87;;;;;;;1.26;94.14;96536.03;5095018;28;20446;-38
2022/03/08 01:35:36;;;;;;;16.40;9.23;;;;;;;1.24;94.29;96536.19;5094987;28;20800;-37
2022/03/08 01:38:03;;;;;;;14.57;8.07;;;;;;;1.25;94.96;96518.69;5094887;28;20450;-38
2022/03/08 01:40:30;;;;;;;13.10;8.50;;;;;;;1.31;95.47;96528.44;5095215;28;20801;-37
2022/03/08 01:42:58;;;;;;;9.67;6.87;;;;;;;1.36;95.57;96520.84;5094827;28;20443;-38
2022/03/08 01:45:26;;;;;;;15.40;7.13;;;;;;;1.40;95.55;96522.91;5095098;28;20454;-38
2022/03/08 01:47:55;;;;;;;20.20;11.40;;;;;;;1.43;95.05;96526.97;5094748;28;20494;-37
2022/03/08 01:50:22;;;;;;;22.80;13.93;;;;;;;1.44;94.99;96518.09;5094756;28;20443;-38
2022/03/08 01:52:50;;;;;;;22.50;11.37;;;;;;;1.41;94.98;96521.09;5094731;28;20497;-38
2022/03/08 01:55:18;;;;;;;27.27;12.47;;;;;;;1.18;95.26;96493.31;5094982;28;20447;-38
2022/03/08 01:57:47;;;;;;;17.10;10.70;;;;;;;1.41;94.91;96528.94;5094649;28;20447;-37
2022/03/08 02:00:17;;;;;;;28.97;12.10;;;;;;;1.45;94.99;96524.97;5094612;28;20435;-38
2022/03/08 02:02:44;;;;;;;14.43;10.07;;;;;;;1.44;94.99;96525.94;5094303;28;20834;-38
2022/03/08 02:05:13;;;;;;;23.90;10.50;;;;;;;1.47;95.25;96528.22;5094464;28;20438;-38
2022/03/08 02:07:40;;;;;;;24.17;12.23;;;;;;;1.48;95.21;96529.03;5093667;28;20489;-38
2022/03/08 02:10:09;;;;;;;27.87;14.90;;;;;;;1.47;95.11;96520.38;5094377;28;20453;-37
2022/03/08 02:12:36;;;;;;;35.03;15.93;;;;;;;1.50;95.21;96527.03;5094346;28;20447;-38
2022/03/08 02:15:12;;;;;;;34.93;17.73;;;;;;;1.50;95.18;96521.78;5094258;28;20443;-37
2022/03/08 02:17:40;;;;;;;32.10;17.10;;;;;;;1.47;95.06;96528.22;5094265;28;20435;-38
2022/03/08 02:20:09;;;;;;;29.03;13.30;;;;;;;1.53;95.02;96532.72;5094161;28;20504;-38
2022/03/08 02:22:38;;;;;;;49.27;19.90;;;;;;;1.50;94.75;96533.06;5094487;28;20447;-38
2022/03/08 02:25:06;;;;;;;58.53;23.50;;;;;;;1.52;94.81;96530.28;5094014;28;20442;-37
2022/03/08 02:27:33;;;;;;;70.40;25.70;;;;;;;1.55;94.76;96540.34;5094285;28;20905;-38
2022/03/08 02:30:00;;;;;;;92.20;30.87;;;;;;;1.48;94.67;96516.75;5093955;28;20435;-38
2022/03/08 02:32:27;;;;;;;75.87;30.47;;;;;;;1.55;94.63;96535.97;5094294;28;20447;-38
2022/03/08 02:34:55;;;;;;;99.47;34.20;;;;;;;1.55;94.29;96535.97;5093967;28;20451;-37
2022/03/08 02:37:22;;;;;;;52.67;19.63;;;;;;;1.55;94.46;96535.97;5094182;28;20445;-38
2022/03/08 02:39:51;;;;;;;26.33;12.50;;;;;;;1.53;94.54;96530.09;5093897;28;20443;-38
2022/03/08 02:42:19;;;;;;;37.33;15.80;;;;;;;1.53;94.64;96535.34;5093754;28;20450;-38
2022/03/08 02:44:46;;;;;;;27.80;14.60;;;;;;;1.54;94.91;96534.31;5094127;28;20789;-38
2022/03/08 02:47:13;;;;;;;20.97;10.70;;;;;;;1.54;94.81;96539.56;5094481;28;20443;-38
2022/03/08 02:49:40;;;;;;;22.27;11.60;;;;;;;1.56;94.93;96537.56;5094029;28;20493;-37
2022/03/08 02:52:08;;;;;;;17.73;10.10;;;;;;;1.56;95.06;96527.09;5094058;28;20461;-37
2022/03/08 02:54:35;;;;;;;19.97;9.43;;;;;;;1.56;95.04;96537.56;5094021;28;20542;-37
2022/03/08 02:57:04;;;;;;;20.17;11.83;;;;;;;1.58;95.10;96527.72;5093662;28;20439;-37
2022/03/08 02:59:31;;;;;;;32.63;15.80;;;;;;;1.57;95.00;96528.72;5093868;28;20492;-38
2022/03/08 03:01:59;;;;;;;32.40;14.07;;;;;;;1.60;95.00;96532.78;5093338;28;20838;-37
2022/03/08 03:04:26;;;;;;;29.07;14.03;;;;;;;1.59;95.21;96537.22;5093435;28;20443;-38
2022/03/08 03:06:53;;;;;;;33.53;16.23;;;;;;;1.60;95.25;96538.00;5093495;28;20439;-37
2022/03/08 03:09:21;;;;;;;29.80;15.20;;;;;;;1.59;95.19;96547.69;5093742;28;20842;-37
2022/03/08 03:11:48;;;;;;;28.73;13.70;;;;;;;1.60;95.49;96538.81;5093972;28;20454;-38
2022/03/08 03:14:16;;;;;;;29.00;14.40;;;;;;;1.49;95.25;96521.00;5093464;28;20443;-37
2022/03/08 03:16:43;;;;;;;36.17;14.30;;;;;;;1.60;95.18;96541.44;5093632;28;20447;-38
2022/03/08 03:19:11;;;;;;;41.60;18.20;;;;;;;1.61;95.39;96540.44;5096332;28;20942;-37
2022/03/08 03:21:38;;;;;;;49.43;21.53;;;;;;;1.60;95.38;96536.19;5097649;28;20813;-38
2022/03/08 03:24:06;;;;;;;41.03;20.40;;;;;;;1.63;95.00;96538.47;5097558;28;20453;-38
2022/03/08 03:26:33;;;;;;;59.13;21.47;;;;;;;1.63;94.74;96545.47;5097841;28;20443;-38
2022/03/08 03:29:00;;;;;;;64.63;27.43;;;;;;;1.64;94.96;96540.06;5097625;28;20536;-37
2022/03/08 03:31:29;;;;;;;55.33;21.47;;;;;;;1.67;95.08;96543.31;5097698;28;20449;-37
2022/03/08 03:33:56;;;;;;;84.10;31.47;;;;;;;1.68;94.96;96540.50;5097583;28;20453;-37
2022/03/08 03:36:23;;;;;;;93.83;33.53;;;;;;;1.70;94.76;96542.94;5097565;28;20439;-38
2022/03/08 03:38:51;;;;;;;105.23;30.53;;;;;;;1.72;94.80;96540.94;5097301;28;20439;-38
2022/03/08 03:41:18;;;;;;;98.27;30.70;;;;;;;1.70;94.79;96532.47;5097546;28;20443;-38
2022/03/08 03:43:45;;;;;;;32.50;15.63;;;;;;;1.72;94.71;96548.78;5097509;28;20439;-37
2022/03/08 03:46:12;;;;;;;61.70;30.00;;;;;;;1.64;94.41;96545.31;5097438;28;20526;-38
2022/03/08 03:48:41;;;;;;;52.97;23.33;;;;;;;1.42;94.15;96541.06;5097353;28;20494;-38
2022/03/08 03:51:09;;;;;;;74.67;31.50;;;;;;;1.33;94.47;96547.38;5097016;28;20488;-38
2022/03/08 03:53:36;;;;;;;52.67;25.40;;;;;;;1.25;94.64;96556.16;5096978;28;20801;-38
2022/03/08 03:56:03;;;;;;;39.60;20.60;;;;;;;1.23;95.46;96558.94;5096961;28;20435;-38
2022/03/08 03:58:31;;;;;;;28.03;15.33;;;;;;;1.19;95.91;96557.69;5097131;28;20465;-37
2022/03/08 04:00:58;;;;;;;23.13;11.10;;;;;;;1.19;96.36;96557.69;5096914;28;20439;-40
2022/03/08 04:03:25;;;;;;;19.00;10.33;;;;;;;1.19;96.40;96560.28;5097170;28;20430;-37
2022/03/08 04:05:53;;;;;;;22.23;11.90;;;;;;;1.19;96.44;96557.69;5097153;28;20442;-37
2022/03/08 04:08:21;;;;;;;16.33;10.97;;;;;;;1.20;96.40;96558.47;5096660;28;20490;-38
2022/03/08 04:10:49;;;;;;;20.33;11.20;;;;;;;1.18;95.87;96536.94;5096962;28;20489;-37
2022/03/08 04:13:17;;;;;;;24.67;10.20;;;;;;;1.15;96.20;96540.72;5096349;28;20933;-38
2022/03/08 04:15:44;;;;;;;18.53;10.20;;;;;;;1.16;96.60;96529.28;5096412;28;20447;-38
2022/03/08 04:18:12;;;;;;;21.90;11.10;;;;;;;1.22;96.32;96540.81;5096445;28;20439;-38
2022/03/08 04:20:39;;;;;;;17.83;11.77;;;;;;;1.26;96.63;96551.72;5096453;28;20439;-38
2022/03/08 04:23:08;;;;;;;28.07;14.07;;;;;;;1.28;96.38;96545.31;5096708;28;20510;-37
2022/03/08 04:25:35;;;;;;;29.90;13.67;;;;;;;1.30;96.12;96548.56;5096339;28;20442;-37
2022/03/08 04:28:03;;;;;;;30.90;15.53;;;;;;;1.32;96.14;96541.34;5096126;28;20919;-37
2022/03/08 04:30:31;;;;;;;40.67;19.97;;;;;;;1.25;95.44;96531.78;5095470;28;20450;-38
2022/03/08 04:32:59;;;;;;;52.13;22.60;;;;;;;1.13;95.69;96516.56;5096117;28;20806;-37
2022/03/08 04:35:27;;;;;;;57.83;22.23;;;;;;;1.32;95.74;96541.34;5096391;28;20451;-38
2022/03/08 04:37:54;;;;;;;34.90;17.90;;;;;;;1.37;96.16;96538.16;5096094;28;20443;-38
2022/03/08 04:40:23;;;;;;;41.87;18.60;;;;;;;1.38;95.81;96550.25;5095973;28;20435;-37
2022/03/08 04:42:50;;;;;;;25.27;14.43;;;;;;;1.34;95.14;96543.78;5096085;28;20443;-37
2022/03/08 04:45:17;;;;;;;30.87;12.87;;;;;;;1.23;94.01;96552.91;5096233;28;20461;-38
2022/03/08 04:47:45;;;;;;;26.30;13.17;;;;;;;1.02;95.14;96530.91;5096160;28;20475;-37
2022/03/08 04:50:16;;;;;;;16.80;10.67;;;;;;;1.10;95.53;96555.34;5096125;28;20442;-37
2022/03/08 04:52:45;;;;;;;38.10;18.23;;;;;;;1.14;95.83;96561.81;5096230;28;20508;-37
2022/03/08 04:55:13;;;;;;;32.20;17.57;;;;;;;1.18;96.14;96545.63;5096079;28;20462;-38
2022/03/08 04:57:41;;;;;;;44.63;22.20;;;;;;;1.20;96.40;96548.81;5095629;28;20803;-38
2022/03/08 05:00:12;;;;;;;37.83;17.33;;;;;;;1.25;96.53;96542.25;5095676;28;20809;-38
2022/03/08 05:02:40;;;;;;;55.33;22.33;;;;;;;1.28;96.69;96544.50;5095557;28;20475;-38
2022/03/08 05:05:08;;;;;;;69.77;26.93;;;;;;;1.29;96.51;96561.81;5094586;28;20795;-38
2022/03/08 05:07:36;;;;;;;49.47;22.63;;;;;;;1.31;96.29;96558.03;5094937;28;20443;-38
2022/03/08 05:10:04;;;;;;;52.50;24.43;;;;;;;1.30;96.41;96572.09;5095117;28;20498;-37
2022/03/08 05:12:31;;;;;;;60.80;25.00;;;;;;;1.32;96.59;96566.69;5095645;28;20447;-38
2022/03/08 05:15:00;;;;;;;45.27;24.07;;;;;;;1.28;96.82;96554.97;5095309;28;20945;-37
2022/03/08 05:17:27;;;;;;;58.30;25.27;;;;;;;1.40;96.66;96558.75;5095368;28;20451;-38
2022/03/08 05:19:55;;;;;;;43.43;23.30;;;;;;;1.44;96.50;96565.19;5095200;28;20926;-38
2022/03/08 05:22:22;;;;;;;38.17;20.20;;;;;;;1.43;96.16;96564.41;5095200;28;20946;-38
2022/03/08 05:24:50;;;;;;;36.50;19.57;;;;;;;1.45;96.17;96560.81;5095087;28;20479;-38
2022/03/08 05:27:17;;;;;;;44.97;18.47;;;;;;;1.40;96.22;96553.50;5095154;28;20439;-38
2022/03/08 05:29:44;;;;;;;33.53;15.13;;;;;;;1.37;95.37;96561.72;5094989;28;20981;-39
2022/03/08 05:32:13;;;;;;;44.07;15.63;;;;;;;1.37;94.85;96559.91;5095327;28;20809;-40
2022/03/08 05:34:41;;;;;;;50.10;21.97;;;;;;;1.34;95.43;96569.94;5095267;28;20453;-38
2022/03/08 05:37:08;;;;;;;42.40;14.93;;;;;;;1.24;95.62;96575.44;5094880;28;20995;-37
2022/03/08 05:39:35;;;;;;;34.33;17.63;;;;;;;1.23;95.70;96574.63;5095215;28;20443;-37
2022/03/08 05:42:03;;;;;;;37.73;14.90;;;;;;;1.21;96.27;96570.59;5094068;28;20492;-37
2022/03/08 05:44:30;;;;;;;40.07;17.57;;;;;;;1.22;96.58;96573.00;5094528;28;20446;-38
2022/03/08 05:46:57;;;;;;;42.50;21.03;;;;;;;1.23;97.04;96566.78;5094708;28;20447;-37
2022/03/08 05:49:25;;;;;;;43.47;18.50;;;;;;;1.26;96.43;96567.41;5094501;28;20483;-38
2022/03/08 05:51:53;;;;;;;28.73;14.23;;;;;;;1.31;96.64;96571.13;5094610;28;20442;-37
2022/03/08 05:54:20;;;;;;;32.50;14.93;;;;;;;1.34;96.89;96567.31;5094737;28;20772;-37
2022/03/08 05:56:48;;;;;;;27.47;13.40;;;;;;;1.40;96.86;96563.97;5094490;28;20926;-37
2022/03/08 05:59:15;;;;;;;27.30;14.07;;;;;;;1.47;96.84;96564.84;5094450;28;20446;-37
2022/03/08 06:01:43;;;;;;;28.67;14.33;;;;;;;1.52;96.61;96572.94;5094156;28;20471;-37
2022/03/08 06:04:10;;;;;;;20.73;10.53;;;;;;;1.49;96.13;96565.47;5094775;28;20446;-36
2022/03/08 06:06:39;;;;;;;19.03;11.10;;;;;;;1.54;95.62;96581.41;5094330;28;20446;-37
2022/03/08 06:09:06;;;;;;;23.23;13.03;;;;;;;1.53;95.60;96579.81;5094100;28;20486;-37
2022/03/08 06:11:33;;;;;;;21.07;11.90;;;;;;;1.56;95.41;96582.06;5094608;28;20782;-37
2022/03/08 06:14:00;;;;;;;23.20;11.27;;;;;;;1.49;94.72;96578.56;5094187;28;20435;-37
2022/03/08 06:16:27;;;;;;;28.80;14.37;;;;;;;1.43;95.41;96585.31;5094452;28;20545;-37
2022/03/08 06:18:56;;;;;;;16.67;11.07;;;;;;;1.38;95.20;96584.28;5094120;28;20442;-37
2022/03/08 06:21:23;;;;;;;36.43;17.73;;;;;;;1.28;95.33;96586.34;5093240;28;20443;-38
2022/03/08 06:23:52;;;;;;;27.17;13.30;;;;;;;1.27;96.24;96595.19;5093967;28;20496;-38
2022/03/08 06:26:19;;;;;;;29.83;14.17;;;;;;;1.28;96.46;96599.44;5094301;28;20999;-37
2022/03/08 06:28:46;;;;;;;15.73;10.23;;;;;;;1.20;96.11;96590.66;5093913;28;20478;-37
2022/03/08 06:31:14;;;;;;;22.30;11.00;;;;;;;1.19;96.29;96596.91;5094114;28;20447;-37
2022/03/08 06:33:41;;;;;;;20.50;12.10;;;;;;;1.23;96.14;96600.78;5093837;28;20790;-37
2022/03/08 06:36:08;;;;;;;22.80;10.93;;;;;;;1.25;96.18;96605.00;5094103;28;20447;-37
2022/03/08 06:38:35;;;;;;;28.30;16.80;;;;;;;1.18;96.33;96597.91;5093966;28;20454;-37
2022/03/08 06:41:04;;;;;;;46.70;24.47;;;;;;;1.21;97.13;96610.63;5094190;28;20494;-37
2022/03/08 06:43:31;;;;;;;59.47;29.90;;;;;;;1.23;96.98;96621.72;5094719;28;20443;-37
2022/03/08 06:45:58;;;;;;;66.57;28.67;;;;;;;1.16;97.33;96620.00;5094067;28;20451;-36
2022/03/08 06:48:26;;;;;;;60.40;25.07;;;;;;;1.15;96.72;96618.38;5094447;28;20534;-39
2022/03/08 06:50:55;;;;;;;36.07;16.87;;;;;;;1.20;96.86;96632.53;5093671;28;20451;-38
2022/03/08 06:53:22;;;;;;;63.50;26.80;;;;;;;1.22;97.30;96627.91;5093382;28;20529;-36
2022/03/08 06:55:49;;;;;;;42.87;21.13;;;;;;;1.20;96.98;96637.75;5093737;28;20447;-36
2022/03/08 06:58:18;;;;;;;110.80;44.80;;;;;;;1.28;97.11;96633.44;5093645;28;20934;-39
2022/03/08 07:00:45;;;;;;;43.53;22.10;;;;;;;1.33;97.35;96625.84;5093313;28;20453;-36
2022/03/08 07:03:14;;;;;;;76.10;34.03;;;;;;;1.39;97.42;96627.75;5093509;28;20442;-36
2022/03/08 07:05:41;;;;;;;56.37;24.90;;;;;;;1.43;97.39;96627.19;5094350;28;20446;-36
2022/03/08 07:08:08;;;;;;;74.63;32.17;;;;;;;1.49;97.28;96633.50;5093817;28;20443;-37
2022/03/08 07:10:35;;;;;;;79.70;37.10;;;;;;;1.47;96.91;96627.66;5093700;28;20513;-36
2022/03/08 07:13:03;;;;;;;61.97;29.13;;;;;;;1.50;96.88;96636.94;5093372;28;20438;-37
2022/03/08 07:15:32;;;;;;;21.20;11.90;;;;;;;1.53;96.45;96637.38;5093545;28;20443;-36
2022/03/08 07:18:00;;;;;;;34.67;15.60;;;;;;;1.52;96.58;96638.34;5093375;28;20914;-36
2022/03/08 07:20:27;;;;;;;26.40;14.83;;;;;;;1.57;96.25;96640.44;5093458;28;20530;-39
2022/03/08 07:22:55;;;;;;;22.53;12.30;;;;;;;1.58;95.90;96634.22;5093249;28;20447;-39
2022/03/08 07:25:22;;;;;;;31.30;14.97;;;;;;;1.62;95.88;96633.66;5075621;28;20443;-38
2022/03/08 07:27:49;;;;;;;27.97;13.17;;;;;;;1.69;95.34;96630.31;5073121;28;20444;-38
2022/03/08 07:30:19;;;;;;;49.73;22.00;;;;;;;1.63;94.40;96637.91;5073112;28;20494;-39
2022/03/08 07:32:51;;;;;;;22.63;13.33;;;;;;;1.72;93.12;96632.53;5073171;28;20440;-39
2022/03/08 07:35:18;;;;;;;15.13;9.00;;;;;;;1.71;90.81;96642.22;5073145;28;20796;-39
2022/03/08 07:37:46;;;;;;;26.23;13.83;;;;;;;1.76;91.52;96641.66;5073401;28;20444;-38
2022/03/08 07:40:13;;;;;;;28.40;14.53;;;;;;;1.76;92.35;96636.41;5073291;28;20444;-36
2022/03/08 07:42:40;;;;;;;42.70;18.20;;;;;;;1.67;91.14;96643.56;5073329;28;20444;-36
2022/03/08 07:45:09;;;;;;;37.57;16.23;;;;;;;1.76;92.03;96637.22;5073203;28;20448;-37
2022/03/08 07:47:36;;;;;;;21.27;10.93;;;;;;;1.80;91.85;96637.69;5073781;28;20465;-36
2022/03/08 07:50:06;;;;;;;21.30;10.50;;;;;;;1.79;90.15;96646.53;5072895;28;20487;-36
2022/03/08 07:52:33;;;;;;;56.53;23.40;;;;;;;1.84;90.71;96638.94;5072976;28;20443;-36
2022/03/08 07:55:00;;;;;;;20.40;11.70;;;;;;;1.93;90.51;96629.16;5072915;28;20444;-36
2022/03/08 07:57:28;;;;;;;32.97;14.40;;;;;;;1.86;89.08;96639.56;5072804;28;20935;-36
2022/03/08 07:59:55;;;;;;;28.47;12.57;;;;;;;1.92;89.09;96636.22;5072786;28;20444;-36
2022/03/08 08:02:22;;;;;;;32.33;14.80;;;;;;;1.97;88.33;96643.50;5072567;28;20486;-38
2022/03/08 08:04:51;;;;;;;26.13;14.13;;;;;;;1.98;87.93;96640.72;5073093;28;20436;-36
2022/03/08 08:07:20;;;;;;;28.40;16.07;;;;;;;2.02;88.53;96639.34;5076758;28;20561;-36
2022/03/08 08:09:47;;;;;;;32.33;15.93;;;;;;;1.96;87.61;96636.66;5076664;28;20861;-36
2022/03/08 08:12:14;;;;;;;23.90;13.10;;;;;;;1.91;87.88;96629.34;5076772;28;20439;-37
2022/03/08 08:14:41;;;;;;;52.60;30.70;;;;;;;1.82;87.37;96636.50;5086106;28;20477;-36
2022/03/08 08:17:09;;;;;;;48.47;29.20;;;;;;;1.73;87.78;96642.84;5096795;28;20443;-37
2022/03/08 08:19:36;;;;;;;28.50;14.53;;;;;;;1.50;88.87;96626.47;5096697;28;20443;-37
2022/03/08 08:22:03;;;;;;;28.47;13.93;;;;;;;1.82;89.18;96646.16;5096742;28;20439;-36
2022/03/08 08:24:32;;;;;;;28.73;13.73;;;;;;;1.75;88.91;96634.81;5096317;28;20442;-36
2022/03/08 08:26:59;;;;;;;22.47;13.90;;;;;;;1.84;88.93;96646.78;5096331;28;20806;-36
2022/03/08 08:29:26;;;;;;;31.60;16.47;;;;;;;1.77;86.67;96643.28;5096212;28;20490;-37
2022/03/08 08:31:53;;;;;;;26.40;13.53;;;;;;;1.72;87.53;96638.63;5096245;28;20450;-37
2022/03/08 08:34:20;;;;;;;35.73;18.70;;;;;;;1.64;88.28;96642.13;5096524;28;20472;-37
2022/03/08 08:36:48;;;;;;;30.60;16.67;;;;;;;1.63;89.18;96651.00;5096130;28;20447;-38
2022/03/08 08:39:15;;;;;;;33.40;17.27;;;;;;;1.52;88.40;96646.22;5096353;28;20447;-37
2022/03/08 08:41:44;;;;;;;28.70;15.03;;;;;;;1.55;88.79;96651.09;5096364;28;20469;-38
2022/03/08 08:44:12;;;;;;;39.00;18.20;;;;;;;1.59;88.64;96649.75;5095992;28;20443;-37
2022/03/08 08:46:40;;;;;;;33.20;18.27;;;;;;;1.56;88.18;96655.31;5096314;28;20451;-38
2022/03/08 08:49:07;;;;;;;36.83;17.23;;;;;;;1.52;88.73;96659.28;5096101;28;20453;-37
2022/03/08 08:51:37;;;;;;;32.87;19.63;;;;;;;1.49;88.50;96662.28;5096161;28;20771;-38
2022/03/08 08:54:06;;;;;;;36.63;18.03;;;;;;;1.39;87.27;96648.66;5095810;28;20439;-38
2022/03/08 08:56:35;;;;;;;33.33;14.30;;;;;;;1.31;85.79;96659.22;5095972;28;20508;-38
2022/03/08 08:59:04;;;;;;;36.70;18.40;;;;;;;1.34;86.64;96658.88;5096544;28;20476;-37
2022/03/08 09:01:31;;;;;;;27.33;16.07;;;;;;;1.41;85.94;96649.31;5095505;28;20478;-38
2022/03/08 09:03:58;;;;;;;36.83;15.70;;;;;;;1.35;85.51;96645.59;5095961;28;20450;-37
2022/03/08 09:06:25;;;;;;;33.20;16.60;;;;;;;1.47;84.56;96656.44;5095791;28;20438;-38
2022/03/08 09:08:54;;;;;;;42.97;18.83;;;;;;;1.50;85.42;96661.28;5095779;28;20447;-39
2022/03/08 09:11:21;;;;;;;46.20;18.43;;;;;;;1.55;84.67;96650.25;5095448;28;20547;-38
2022/03/08 09:13:48;;;;;;;39.40;18.83;;;;;;;1.59;84.67;96665.44;5095370;28;20445;-37
2022/03/08 09:16:17;;;;;;;33.60;14.77;;;;;;;1.61;84.81;96653.00;5095200;28;20517;-37
2022/03/08 09:18:45;;;;;;;40.60;20.47;;;;;;;1.56;83.62;96657.94;5095364;28;20438;-38
2022/03/08 09:21:13;;;;;;;32.00;16.53;;;;;;;1.60;83.16;96648.72;5095365;28;20525;-39
2022/03/08 09:23:41;;;;;;;44.17;19.33;;;;;;;1.62;83.27;96656.41;5095492;28;20447;-38
2022/03/08 09:26:09;;;;;;;52.77;21.63;;;;;;;1.69;83.69;96651.25;5095243;28;20450;-38
2022/03/08 09:28:36;;;;;;;49.73;23.00;;;;;;;1.52;82.53;96640.19;5095127;28;20450;-38
2022/03/08 09:31:04;;;;;;;61.50;22.20;;;;;;;1.49;83.18;96641.34;5095345;28;20487;-38
2022/03/08 09:33:32;;;;;;;34.63;18.50;;;;;;;1.66;82.67;96651.59;5095019;28;20882;-39
2022/03/08 09:35:59;;;;;;;54.07;21.20;;;;;;;1.74;83.15;96665.41;5094997;28;20435;-38
2022/03/08 09:38:26;;;;;;;57.93;25.30;;;;;;;1.78;83.39;96660.63;5095280;28;20443;-40
2022/03/08 09:40:54;;;;;;;41.30;19.03;;;;;;;1.72;82.64;96666.56;5094869;28;20443;-38
2022/03/08 09:43:22;;;;;;;43.63;19.00;;;;;;;1.81;83.19;96675.97;5095189;28;20540;-38
2022/03/08 09:45:49;;;;;;;52.77;24.50;;;;;;;1.84;82.78;96676.38;5094765;28;20522;-38
2022/03/08 09:48:17;;;;;;;49.47;22.33;;;;;;;1.77;83.18;96675.50;5094985;28;20443;-39
2022/03/08 09:50:46;;;;;;;41.20;19.93;;;;;;;1.71;82.79;96685.91;5094983;28;20548;-37
2022/03/08 09:53:13;;;;;;;45.80;19.07;;;;;;;1.62;83.76;96683.38;5094665;28;20439;-38
2022/03/08 09:55:41;;;;;;;57.53;23.33;;;;;;;1.62;84.08;96682.59;5094924;28;20483;-38
2022/03/08 09:58:08;;;;;;;54.87;22.57;;;;;;;1.55;82.99;96681.66;5094918;28;20523;-39
2022/03/08 10:00:35;;;;;;;45.33;20.50;;;;;;;1.61;83.72;96681.78;5094465;28;21230;-38
2022/03/08 10:03:08;;;;;;;43.70;20.63;;;;;;;1.64;82.80;96681.41;5094285;28;20474;-38
2022/03/08 10:05:39;;;;;;;32.30;17.07;;;;;;;1.31;81.84;96670.53;5094717;28;21010;-38
2022/03/08 10:08:13;;;;;;;37.70;19.60;;;;;;;1.21;81.88;96665.53;5094492;28;20463;-37
2022/03/08 10:10:49;;;;;;;46.17;21.73;;;;;;;1.28;82.71;96675.28;5093295;28;20865;-39
2022/03/08 10:13:18;;;;;;;27.63;15.53;;;;;;;1.08;82.17;96665.38;5074110;28;20956;-38
2022/03/08 10:15:45;;;;;;;37.43;16.00;;;;;;;1.13;81.29;96677.91;5073860;28;20887;-37
2022/03/08 10:18:12;;;;;;;43.03;19.53;;;;;;;1.07;81.52;96676.00;5073949;28;20440;-38
2022/03/08 10:20:40;;;;;;;33.50;17.47;;;;;;;1.03;81.60;96678.16;5074111;28;20444;-35
2022/03/08 10:23:14;;;;;;;36.57;19.10;;;;;;;1.00;82.20;96683.75;5073901;28;20448;-38
2022/03/08 10:25:44;;;;;;;39.83;18.90;;;;;;;1.03;82.20;96680.75;5074074;28;20515;-38
2022/03/08 10:28:11;;;;;;;43.27;18.07;;;;;;;1.06;82.08;96690.88;5073178;28;20440;-38
2022/03/08 10:30:51;;;;;;;44.03;19.60;;;;;;;1.03;80.62;96688.59;5086795;28;20502;-38
2022/03/08 10:33:20;;;;;;;31.13;16.83;;;;;;;0.99;79.61;96671.66;5094384;28;20462;-38
2022/03/08 10:35:51;;;;;;;45.50;18.60;;;;;;;0.92;78.09;96686.44;5093859;28;20447;-38
2022/03/08 10:38:19;;;;;;;42.83;17.40;;;;;;;0.85;77.86;96701.22;5094834;28;20435;-38
2022/03/08 10:40:47;;;;;;;35.97;18.50;;;;;;;0.81;78.05;96701.53;5093897;28;20495;-37
2022/03/08 10:43:17;;;;;;;33.00;16.13;;;;;;;0.71;77.72;96693.16;5093776;28;20453;-37
2022/03/08 10:45:46;;;;;;;30.73;16.07;;;;;;;0.71;78.00;96706.22;5093825;28;20480;-38
2022/03/08 10:48:15;;;;;;;35.33;16.73;;;;;;;0.63;76.82;96687.19;5094059;28;20465;-38
2022/03/08 10:50:43;;;;;;;29.33;15.03;;;;;;;0.56;77.83;96697.50;5093624;28;20526;-38
2022/03/08 10:53:12;;;;;;;34.43;16.00;;;;;;;0.43;77.93;96692.91;5093650;28;20477;-38
2022/03/08 10:55:46;;;;;;;38.47;17.43;;;;;;;0.47;79.53;96693.34;5093982;28;20930;-38
2022/03/08 10:58:15;;;;;;;38.83;16.53;;;;;;;0.45;78.35;96690.91;5093944;28;20493;-38
2022/03/08 11:00:44;;;;;;;30.53;14.70;;;;;;;0.48;79.39;96690.56;5093963;28;20471;-39
2022/03/08 11:03:13;;;;;;;37.53;19.47;;;;;;;0.54;78.23;96694.28;5093569;28;20500;-38
2022/03/08 11:05:42;;;;;;;35.87;18.30;;;;;;;0.55;78.97;96698.50;5093907;28;20461;-38
2022/03/08 11:08:10;;;;;;;37.33;17.03;;;;;;;0.54;79.68;96694.28;5093554;28;20439;-37
2022/03/08 11:10:38;;;;;;;33.47;15.57;;;;;;;0.46;79.34;96691.72;5093455;28;20482;-38
2022/03/08 11:13:08;;;;;;;47.00;21.53;;;;;;;0.45;78.94;96690.09;5093523;28;20438;-37
2022/03/08 11:15:37;;;;;;;26.30;16.53;;;;;;;0.58;79.18;96698.16;5093767;28;20451;-38
2022/03/08 11:18:06;;;;;;;44.50;18.80;;;;;;;0.63;78.89;96698.44;5093741;28;20438;-38
2022/03/08 11:20:34;;;;;;;40.20;18.60;;;;;;;0.69;78.74;96694.31;5093708;28;20443;-37
2022/03/08 11:23:02;;;;;;;40.53;20.10;;;;;;;0.77;78.94;96695.03;5093419;28;20443;-38
2022/03/08 11:25:32;;;;;;;36.80;15.37;;;;;;;0.79;77.79;96692.25;5093393;28;20534;-39
2022/03/08 11:28:02;;;;;;;37.33;17.90;;;;;;;0.88;78.44;96693.00;5093654;28;20427;-38
2022/03/08 11:30:33;;;;;;;43.80;20.30;;;;;;;0.86;77.29;96694.97;5093634;28;20548;-37